Terminal Aerodrome Forecast
Issued by NWS Des Moines, IA

Home | Current Version | Previous Version | Text Only | Print | Product List | Glossary On
Versions: 1 2 3 4 5 6 7 8 9 10 11 12 13 14 15 16 17 18 19 20 21 22 23 24 25 26 27 28 29 30 31 32 33 34 35 36 37 38 39 40
000
FTUS43 KDMX 222142 AAA
TAFALO
TAF AMD
KALO 222142Z 2222/2318 27009KT P6SM VCTS FEW050CB BKN090
     FM230100 25006KT P6SM VCSH SCT020 BKN035
     FM230700 30007KT P6SM BKN040
     FM231500 35009KT P6SM BKN050=

USA.gov is the U.S. government's official web portal to all federal, state and local government web resources and services.